Time;durP1;ratioP1;P1;durP2;ratioP2;P2;SDS_P1;SDS_P2;PMS_P1;PMS_P2;Temp;Humidity;BMP_temperature;BMP_pressure;BME280_temperature;BME280_humidity;BME280_pressure;Samples;Min_cycle;Max_cycle;Signal;HPM_P1;HPM_P2
2022/07/21 00:00:56;;;;;;;5.73;5.23;;;28.30;47.50;;;;;;5059964;28;20197;-81
2022/07/21 00:03:25;;;;;;;5.07;4.60;;;28.30;47.50;;;;;;5062339;28;20488;-81
2022/07/21 00:05:55;;;;;;;5.43;4.10;;;28.30;47.50;;;;;;5077915;28;20421;-81
2022/07/21 00:08:25;;;;;;;5.33;4.93;;;28.30;47.50;;;;;;5061842;28;20405;-80
2022/07/21 00:11:02;;;;;;;5.23;4.67;;;28.30;47.60;;;;;;5045717;28;20504;-81
2022/07/21 00:13:29;;;;;;;5.67;5.20;;;28.30;47.50;;;;;;5061993;28;20424;-80
2022/07/21 00:16:01;;;;;;;5.70;5.20;;;28.30;47.60;;;;;;5062367;28;20420;-80
2022/07/21 00:18:31;;;;;;;6.13;5.53;;;28.20;47.50;;;;;;5061808;28;20401;-81
2022/07/21 00:21:01;;;;;;;6.03;5.53;;;28.30;47.60;;;;;;5061017;28;20426;-81
2022/07/21 00:23:31;;;;;;;5.50;5.00;;;28.30;47.60;;;;;;5046174;28;20476;-81
2022/07/21 00:25:59;;;;;;;4.77;4.37;;;28.30;47.60;;;;;;5045205;28;20410;-81
2022/07/21 00:28:28;;;;;;;5.17;4.67;;;28.30;47.60;;;;;;5079418;28;20386;-81
2022/07/21 00:31:01;;;;;;;5.83;4.83;;;28.30;47.60;;;;;;5062510;28;20421;-81
2022/07/21 00:33:30;;;;;;;5.00;4.43;;;28.30;47.60;;;;;;5060968;28;20402;-80
2022/07/21 00:35:58;;;;;;;4.80;4.40;;;28.20;47.60;;;;;;5061275;28;20422;-81
2022/07/21 00:38:26;;;;;;;5.40;4.90;;;28.30;47.70;;;;;;5061781;28;20418;-81
2022/07/21 00:41:03;;;;;;;5.20;4.80;;;28.30;47.70;;;;;;5077687;28;20424;-81
2022/07/21 00:43:32;;;;;;;4.40;4.00;;;28.30;47.70;;;;;;5061602;28;20481;-81
2022/07/21 00:46:01;;;;;;;4.80;4.20;;;28.30;47.70;;;;;;5061532;28;20386;-81
2022/07/21 00:48:38;;;;;;;5.20;4.83;;;28.30;47.70;;;;;;5077502;28;20409;-80
2022/07/21 00:51:11;;;;;;;4.43;4.03;;;28.30;47.80;;;;;;5061339;28;20418;-80
2022/07/21 00:53:58;;;;;;;5.03;4.63;;;28.30;47.80;;;;;;5077785;28;20450;-80
2022/07/21 00:56:26;;;;;;;5.30;4.80;;;28.30;47.80;;;;;;5060245;28;20430;-81
2022/07/21 00:59:05;;;;;;;4.67;4.27;;;28.30;47.90;;;;;;5078575;28;20382;-81
2022/07/21 01:01:36;;;;;;;4.77;4.37;;;28.30;47.80;;;;;;5045579;28;20465;-80
2022/07/21 01:04:04;;;;;;;5.30;4.80;;;28.30;47.80;;;;;;5059963;28;20401;-81
2022/07/21 01:06:31;;;;;;;5.20;4.70;;;28.30;47.80;;;;;;5058070;28;20428;-80
2022/07/21 01:09:01;;;;;;;4.70;4.30;;;28.30;47.90;;;;;;5075521;28;20402;-81
2022/07/21 01:11:34;;;;;;;4.53;4.00;;;28.30;47.90;;;;;;5075955;28;20406;-80
2022/07/21 01:14:01;;;;;;;4.80;4.30;;;28.30;47.90;;;;;;5059419;28;20416;-81
2022/07/21 01:16:43;;;;;;;5.50;5.00;;;28.30;47.90;;;;;;5076804;28;20377;-81
2022/07/21 01:19:11;;;;;;;4.57;4.17;;;28.30;47.90;;;;;;5042560;28;20410;-81
2022/07/21 01:21:51;;;;;;;4.80;3.93;;;28.30;47.90;;;;;;5059981;28;20468;-80
2022/07/21 01:24:32;;;;;;;4.60;4.20;;;28.30;47.90;;;;;;5058120;28;20488;-81
2022/07/21 01:27:04;;;;;;;5.20;4.70;;;28.30;48.00;;;;;;5058710;28;20390;-81
2022/07/21 01:29:34;;;;;;;5.47;4.97;;;28.30;48.00;;;;;;5058770;28;20406;-80
2022/07/21 01:32:11;;;;;;;4.70;4.30;;;28.30;48.00;;;;;;5043269;28;20406;-81
2022/07/21 01:34:39;;;;;;;4.20;3.80;;;28.30;48.00;;;;;;5076333;28;20397;-81
2022/07/21 01:37:07;;;;;;;5.37;4.87;;;28.30;48.00;;;;;;5059014;28;20420;-81
2022/07/21 01:42:19;;;;;;;4.17;3.87;;;28.30;48.00;;;;;;5076808;28;20452;-81
2022/07/21 01:44:46;;;;;;;4.60;3.97;;;28.30;48.00;;;;;;5059146;28;20460;-81
2022/07/21 01:47:17;;;;;;;4.10;3.70;;;28.40;48.00;;;;;;5059260;28;20410;-81
2022/07/21 01:49:44;;;;;;;4.33;3.93;;;28.40;48.00;;;;;;5043355;28;20453;-81
2022/07/21 01:52:12;;;;;;;4.33;3.93;;;28.40;48.10;;;;;;5058792;28;20425;-81
2022/07/21 01:54:40;;;;;;;4.40;4.00;;;28.30;48.00;;;;;;5042171;28;20533;-80
2022/07/21 01:57:15;;;;;;;4.90;4.40;;;28.30;48.10;;;;;;5058445;28;20469;-81
2022/07/21 01:59:42;;;;;;;4.03;3.63;;;28.40;48.10;;;;;;5059110;28;20408;-81
2022/07/21 02:02:10;;;;;;;4.20;3.87;;;28.40;48.10;;;;;;5057469;28;20464;-81
2022/07/21 02:04:38;;;;;;;4.87;4.37;;;28.40;48.10;;;;;;5076268;28;20402;-81
2022/07/21 02:07:06;;;;;;;4.27;3.93;;;28.40;48.10;;;;;;5057325;28;20430;-81
2022/07/21 02:09:32;;;;;;;4.20;3.80;;;28.40;48.10;;;;;;5039277;28;20455;-81
2022/07/21 02:11:59;;;;;;;3.83;3.53;;;28.40;48.20;;;;;;5055871;28;20425;-81
2022/07/21 02:14:27;;;;;;;3.93;3.63;;;28.40;48.10;;;;;;5055904;28;20518;-82
2022/07/21 02:17:02;;;;;;;4.10;3.50;;;28.40;48.10;;;;;;5055742;28;20438;-82
2022/07/21 02:19:31;;;;;;;4.83;4.33;;;28.40;48.10;;;;;;5073890;28;20397;-80
2022/07/21 02:21:57;;;;;;;4.27;3.97;;;28.40;48.10;;;;;;5056112;28;20492;-81
2022/07/21 02:24:28;;;;;;;4.50;4.10;;;28.40;48.20;;;;;;5058091;28;20417;-80
2022/07/21 02:26:59;;;;;;;4.50;4.20;;;28.40;48.20;;;;;;5059516;28;20406;-80
2022/07/21 02:29:30;;;;;;;4.07;3.67;;;28.40;48.20;;;;;;5043084;28;20426;-81
2022/07/21 02:32:00;;;;;;;4.30;3.73;;;28.40;48.20;;;;;;5059255;28;20410;-81
2022/07/21 02:34:29;;;;;;;3.97;3.67;;;28.40;48.20;;;;;;5059074;28;20445;-81
2022/07/21 02:36:58;;;;;;;4.53;4.10;;;28.40;48.20;;;;;;5076486;28;20406;-80
2022/07/21 02:39:36;;;;;;;5.20;4.70;;;28.40;48.30;;;;;;5042906;28;20418;-80
2022/07/21 02:42:10;;;;;;;5.80;4.00;;;28.40;48.30;;;;;;5059180;28;20461;-80
2022/07/21 02:44:40;;;;;;;4.60;3.97;;;28.40;48.30;;;;;;5055871;28;20421;-80
2022/07/21 02:47:07;;;;;;;4.77;4.37;;;28.40;48.30;;;;;;5054005;28;20409;-80
2022/07/21 02:49:55;;;;;;;4.60;4.00;;;28.40;48.30;;;;;;5054967;28;20769;-80
2022/07/21 02:52:22;;;;;;;4.60;4.20;;;28.40;48.30;;;;;;5056569;28;20444;-81
2022/07/21 02:54:49;;;;;;;4.40;4.00;;;28.40;48.30;;;;;;5057346;28;20437;-81
2022/07/21 02:57:18;;;;;;;5.23;3.83;;;28.40;48.30;;;;;;5055804;28;20427;-80
2022/07/21 02:59:47;;;;;;;4.20;3.80;;;28.40;48.30;;;;;;5057070;28;20490;-81
2022/07/21 03:02:16;;;;;;;4.80;3.93;;;28.40;48.30;;;;;;5055746;28;20457;-81
2022/07/21 03:04:44;;;;;;;3.70;3.40;;;28.40;48.30;;;;;;5055710;28;20410;-81
2022/07/21 03:07:11;;;;;;;3.83;3.53;;;28.40;48.40;;;;;;5055830;28;20409;-81
2022/07/21 03:09:38;;;;;;;4.20;3.80;;;28.40;48.40;;;;;;5055936;28;20410;-81
2022/07/21 03:12:07;;;;;;;4.70;4.30;;;28.40;48.40;;;;;;5055546;28;20422;-81
2022/07/21 03:14:34;;;;;;;4.23;3.83;;;28.40;48.40;;;;;;5056649;28;20417;-80
2022/07/21 03:17:02;;;;;;;4.30;3.90;;;28.40;48.50;;;;;;5056593;28;20410;-79
2022/07/21 03:19:48;;;;;;;;;;;;;;;;;;;;;
2022/07/21 03:22:19;;;;;;;4.73;4.23;;;28.40;48.50;;;;;;5073834;28;20466;-79
2022/07/21 03:24:52;;;;;;;4.30;3.90;;;28.40;48.50;;;;;;5040418;28;20413;-79
2022/07/21 03:27:18;;;;;;;5.30;4.87;;;28.40;48.60;;;;;;5074197;28;20398;-79
2022/07/21 03:29:47;;;;;;;4.53;3.80;;;28.40;48.60;;;;;;5056912;28;20485;-79
2022/07/21 03:32:17;;;;;;;4.80;4.40;;;28.40;48.60;;;;;;5056834;28;20444;-80
2022/07/21 03:34:45;;;;;;;4.30;3.90;;;28.40;48.60;;;;;;5056411;28;20418;-80
2022/07/21 03:37:12;;;;;;;5.17;4.67;;;28.40;48.70;;;;;;5056468;28;20421;-80
2022/07/21 03:39:40;;;;;;;4.67;4.07;;;28.40;48.60;;;;;;5056892;28;20437;-82
2022/07/21 03:42:08;;;;;;;4.57;4.13;;;28.40;48.70;;;;;;5056607;28;20453;-80
2022/07/21 03:44:40;;;;;;;6.00;4.23;;;28.40;48.70;;;;;;5056661;28;20440;-80
2022/07/21 03:47:09;;;;;;;4.43;4.03;;;28.40;48.70;;;;;;5040115;28;20410;-80
2022/07/21 03:49:49;;;;;;;5.20;4.63;;;28.50;48.70;;;;;;5057727;28;20410;-80
2022/07/21 03:52:19;;;;;;;4.17;3.87;;;28.40;48.70;;;;;;5055947;28;20443;-80
2022/07/21 03:54:46;;;;;;;5.10;4.37;;;28.40;48.80;;;;;;5056721;28;20414;-79
2022/07/21 03:57:13;;;;;;;4.73;4.10;;;28.50;48.80;;;;;;5056810;28;20409;-80
2022/07/21 03:59:40;;;;;;;4.40;4.00;;;28.50;48.80;;;;;;5056073;28;20429;-81
2022/07/21 04:02:07;;;;;;;4.43;4.00;;;28.50;48.80;;;;;;5055486;28;20480;-81
2022/07/21 04:04:33;;;;;;;4.60;3.93;;;28.50;48.80;;;;;;5053850;28;20410;-81
2022/07/21 04:07:00;;;;;;;4.80;4.30;;;28.50;48.80;;;;;;5054141;28;20416;-82
2022/07/21 04:09:31;;;;;;;4.50;4.20;;;28.50;48.80;;;;;;5054017;28;20414;-81
2022/07/21 04:11:57;;;;;;;5.20;4.70;;;28.40;48.70;;;;;;5054064;28;20425;-80
2022/07/21 04:17:44;;;;;;;4.93;4.40;;;28.50;48.80;;;;;;5050807;28;20424;-80
2022/07/21 04:20:15;;;;;;;5.00;4.20;;;28.50;48.70;;;;;;5075400;28;20410;-80
2022/07/21 04:22:43;;;;;;;4.33;3.93;;;28.40;48.70;;;;;;5058176;28;20457;-80
2022/07/21 04:25:14;;;;;;;4.97;4.43;;;28.40;48.70;;;;;;5058730;28;20413;-81
2022/07/21 04:27:43;;;;;;;4.30;3.87;;;28.50;48.80;;;;;;5058199;28;20414;-81
2022/07/21 04:30:17;;;;;;;3.90;3.60;;;28.50;48.80;;;;;;5039741;28;20489;-81
2022/07/21 04:32:51;;;;;;;4.80;4.17;;;28.50;48.80;;;;;;5057716;28;20409;-80
2022/07/21 04:35:22;;;;;;;4.17;3.87;;;28.50;48.80;;;;;;5056654;28;20456;-81
2022/07/21 04:37:57;;;;;;;4.67;4.27;;;28.40;48.80;;;;;;5041031;28;20468;-81
2022/07/21 04:40:24;;;;;;;4.70;4.10;;;28.50;48.80;;;;;;5057696;28;20421;-81
2022/07/21 04:42:54;;;;;;;3.80;3.50;;;28.40;48.80;;;;;;5056983;28;20506;-81
2022/07/21 04:45:23;;;;;;;6.57;4.27;;;28.50;48.90;;;;;;5056373;28;20408;-83
2022/07/21 04:47:56;;;;;;;4.77;4.27;;;28.50;49.00;;;;;;5074640;28;20410;-82
2022/07/21 04:50:38;;;;;;;;;;;;;;;;;;;;;
2022/07/21 04:53:08;;;;;;;4.70;4.30;;;28.50;49.10;;;;;;5074659;28;20414;-82
2022/07/21 04:55:47;;;;;;;;;;;;;;;;;;;;;
2022/07/21 04:58:19;;;;;;;6.97;4.43;;;28.50;49.30;;;;;;5074793;28;20402;-80
2022/07/21 05:00:49;;;;;;;5.20;4.47;;;28.50;49.40;;;;;;5057653;28;20410;-81
2022/07/21 05:03:15;;;;;;;5.50;5.10;;;28.50;49.50;;;;;;5056731;28;20485;-81
2022/07/21 05:05:41;;;;;;;6.00;5.40;;;28.50;49.50;;;;;;5073880;28;20414;-82
2022/07/21 05:08:08;;;;;;;5.37;4.80;;;28.50;49.60;;;;;;5057184;28;20416;-80
2022/07/21 05:10:37;;;;;;;7.30;5.37;;;28.50;49.70;;;;;;5073954;28;20405;-80
2022/07/21 05:13:14;;;;;;;6.50;5.80;;;28.50;49.80;;;;;;5056620;28;20417;-81
2022/07/21 05:15:40;;;;;;;6.43;5.80;;;28.50;49.80;;;;;;5055878;28;20417;-82
2022/07/21 05:18:10;;;;;;;6.00;5.40;;;28.60;49.90;;;;;;5055835;28;20472;-81
2022/07/21 05:20:40;;;;;;;8.00;6.07;;;28.60;49.90;;;;;;5058556;28;20437;-82
2022/07/21 05:23:32;;;;;;;7.10;6.30;;;28.60;50.00;;;;;;5058619;28;20476;-81
2022/07/21 05:25:59;;;;;;;5.90;5.33;;;28.60;50.00;;;;;;5060326;28;20416;-82
2022/07/21 05:31:56;;;;;;;6.60;6.00;;;28.60;50.00;;;;;;5077407;28;20412;-82
2022/07/21 05:34:23;;;;;;;6.03;5.50;;;28.60;50.10;;;;;;5059617;28;20404;-82
2022/07/21 05:37:02;;;;;;;6.40;5.80;;;28.60;50.20;;;;;;5058940;28;20428;-82
2022/07/21 05:39:41;;;;;;;6.93;6.07;;;28.60;50.10;;;;;;5076802;28;20382;-82
2022/07/21 05:42:08;;;;;;;6.90;6.03;;;28.60;50.20;;;;;;5058308;28;20457;-82
2022/07/21 05:44:47;;;;;;;6.57;5.70;;;28.60;50.30;;;;;;5075976;28;20389;-82
2022/07/21 05:47:19;;;;;;;6.43;5.83;;;28.60;50.30;;;;;;5060027;28;20421;-82
2022/07/21 05:49:53;;;;;;;7.43;6.83;;;28.60;50.30;;;;;;5057566;28;20479;-82
2022/07/21 05:52:21;;;;;;;7.37;6.27;;;28.60;50.30;;;;;;5058617;28;20430;-81
2022/07/21 05:54:56;;;;;;;7.33;6.63;;;28.60;50.30;;;;;;5058747;28;20463;-81
2022/07/21 05:57:23;;;;;;;7.20;6.50;;;28.60;50.40;;;;;;5058839;28;20401;-80
2022/07/21 05:59:58;;;;;;;8.17;7.20;;;28.60;50.40;;;;;;5074691;28;20458;-82
2022/07/21 06:02:29;;;;;;;6.77;6.10;;;28.60;50.40;;;;;;5058686;28;20517;-81
2022/07/21 06:05:00;;;;;;;8.17;7.07;;;28.60;50.40;;;;;;5075966;28;20406;-81
2022/07/21 06:11:03;;;;;;;6.70;6.10;;;28.60;50.50;;;;;;5015680;28;20463;-81
2022/07/21 06:13:41;;;;;;;7.70;7.00;;;28.60;50.50;;;;;;5015064;28;20408;-81
2022/07/21 06:16:14;;;;;;;8.13;7.30;;;28.50;50.50;;;;;;4998238;28;20506;-82
2022/07/21 06:18:42;;;;;;;7.83;7.13;;;28.60;50.60;;;;;;4998192;28;20455;-82
2022/07/21 06:21:41;;;;;;;7.67;6.97;;;28.50;50.50;;;;;;5015212;28;20409;-82
2022/07/21 06:24:23;;;;;;;7.20;6.50;;;28.60;50.60;;;;;;4998173;28;20448;-82
2022/07/21 06:26:51;;;;;;;8.63;7.73;;;28.60;50.60;;;;;;5014947;28;20385;-82
2022/07/21 06:29:24;;;;;;;8.00;7.30;;;28.60;50.70;;;;;;4999031;28;20447;-82
2022/07/21 06:31:56;;;;;;;8.23;7.53;;;28.60;50.60;;;;;;5013072;28;20473;-82
2022/07/21 06:34:23;;;;;;;7.40;6.70;;;28.60;50.70;;;;;;4998610;28;20447;-82
2022/07/21 06:37:00;;;;;;;7.90;7.20;;;28.70;50.70;;;;;;5014688;28;20432;-82
2022/07/21 06:39:33;;;;;;;8.50;7.70;;;28.70;50.80;;;;;;4998341;28;20436;-81
2022/07/21 06:42:02;;;;;;;8.17;7.47;;;28.70;50.80;;;;;;5068539;28;20446;-83
2022/07/21 06:44:33;;;;;;;8.40;7.60;;;28.60;50.70;;;;;;5075175;28;20406;-81
2022/07/21 06:47:06;;;;;;;8.30;7.50;;;28.70;50.80;;;;;;5075527;28;20453;-81
2022/07/21 06:49:37;;;;;;;8.87;8.07;;;28.70;50.90;;;;;;5041413;28;20413;-82
2022/07/21 06:52:37;;;;;;;9.90;8.97;;;28.70;50.80;;;;;;5075534;28;20394;-84
2022/07/21 06:55:15;;;;;;;8.40;7.70;;;28.70;50.90;;;;;;5040397;28;20447;-83
2022/07/21 06:57:45;;;;;;;8.70;7.90;;;28.70;50.90;;;;;;5058295;28;20851;-83
2022/07/21 07:00:22;;;;;;;8.13;7.33;;;28.70;51.00;;;;;;5056846;28;20429;-83
2022/07/21 07:02:53;;;;;;;8.97;8.17;;;28.70;51.00;;;;;;5074607;28;20524;-83
2022/07/21 07:05:33;;;;;;;;;;;;;;;;;;;;;
2022/07/21 07:08:16;;;;;;;7.43;6.83;;;28.70;51.00;;;;;;5074418;28;20391;-83
2022/07/21 07:13:39;;;;;;;9.33;8.40;;;28.70;51.00;;;;;;5047090;28;20410;-83
2022/07/21 07:16:15;;;;;;;8.00;7.30;;;28.70;51.00;;;;;;5074105;28;20438;-83
2022/07/21 07:19:04;;;;;;;9.37;8.47;;;28.70;51.00;;;;;;5072185;28;20413;-82
2022/07/21 07:25:16;;;;;;;9.60;8.00;;;28.70;51.00;;;;;;5059687;28;20443;-83
2022/07/21 07:27:58;;;;;;;8.80;8.00;;;28.70;51.10;;;;;;5057549;28;20422;-83
2022/07/21 07:30:58;;;;;;;;;;;;;;;;;;;;;
2022/07/21 07:40:45;;;;;;;9.60;8.70;;;28.70;51.10;;;;;;4935903;29;20416;-82
2022/07/21 07:43:16;;;;;;;8.20;7.50;;;28.70;51.20;;;;;;4934969;29;20467;-83
2022/07/21 07:46:11;;;;;;;9.17;8.47;;;28.70;51.20;;;;;;4934468;29;20500;-82
2022/07/21 07:51:58;;;;;;;8.93;8.13;;;28.70;51.20;;;;;;4900556;29;20892;-83
2022/07/21 07:54:25;;;;;;;9.53;8.63;;;28.70;51.20;;;;;;4922567;29;20463;-82
2022/07/21 07:56:52;;;;;;;9.73;8.60;;;28.70;51.20;;;;;;4938951;29;20886;-82
2022/07/21 07:59:24;;;;;;;8.50;7.70;;;28.70;51.20;;;;;;4939267;29;20435;-82
2022/07/21 08:02:49;;;;;;;;;;;;;;;;;;;;;
2022/07/21 08:08:40;;;;;;;8.77;7.97;;;28.70;51.20;;;;;;4938821;29;20391;-82
2022/07/21 08:11:22;;;;;;;9.37;8.50;;;28.70;51.30;;;;;;4937173;29;20466;-81
2022/07/21 08:13:49;;;;;;;9.20;8.40;;;28.70;51.30;;;;;;4986985;28;20418;-84
2022/07/21 08:16:53;;;;;;;;;;;;;;;;;;;;;
2022/07/21 08:19:36;;;;;;;9.47;8.53;;;28.70;51.20;;;;;;4985782;28;20429;-82
2022/07/21 08:22:07;;;;;;;9.20;8.40;;;28.70;51.20;;;;;;4981881;28;20463;-83
2022/07/21 08:25:23;;;;;;;9.07;8.17;;;28.70;51.20;;;;;;4996330;28;20413;-83
2022/07/21 08:45:04;;;;;;;8.13;7.43;;;28.70;51.20;;;;;;4901349;29;20417;-83
2022/07/21 08:48:17;;;;;;;;;;;;;;;;;;;;;
2022/07/21 08:51:06;;;;;;;;;;;;;;;;;;;;;
2022/07/21 08:54:36;;;;;;;8.17;7.47;;;28.70;51.10;;;;;;4900908;29;20421;-82
2022/07/21 08:56:38;;;;;;;8.20;7.40;;;28.70;51.10;;;;;;4916231;29;20512;-83
2022/07/21 08:59:35;;;;;;;7.50;6.90;;;28.70;51.00;;;;;;4919166;29;20895;-82
2022/07/21 09:02:27;;;;;;;7.77;7.07;;;28.70;51.00;;;;;;4981868;28;20469;-82
2022/07/21 09:05:04;;;;;;;8.07;7.37;;;28.70;50.90;;;;;;4995972;28;20405;-83
2022/07/21 09:08:02;;;;;;;7.27;6.60;;;28.70;50.90;;;;;;4995754;28;20735;-82
2022/07/21 09:17:58;;;;;;;;;;;;;;;;;;;;;
2022/07/21 09:20:27;;;;;;;7.43;6.73;;;28.70;50.80;;;;;;5015342;28;20412;-82
2022/07/21 09:23:15;;;;;;;7.53;6.77;;;28.70;50.90;;;;;;5015144;28;20491;-83
2022/07/21 09:25:49;;;;;;;6.83;6.23;;;28.70;50.80;;;;;;4998524;28;20741;-83
2022/07/21 09:29:02;;;;;;;7.70;7.00;;;28.70;50.80;;;;;;5014594;28;20392;-83
2022/07/21 09:32:19;;;;;;;7.57;6.90;;;28.70;50.80;;;;;;5013022;28;20457;-83
2022/07/21 09:38:39;;;;;;;;;;;;;;;;;;;;;
2022/07/21 09:41:51;;;;;;;;;;;;;;;;;;;;;
2022/07/21 09:47:38;;;;;;;;;;;;;;;;;;;;;
2022/07/21 09:50:31;;;;;;;7.40;6.70;;;28.70;50.80;;;;;;5009119;28;20919;-82
2022/07/21 09:53:31;;;;;;;7.23;6.63;;;28.70;50.70;;;;;;4997691;28;20419;-82
2022/07/21 09:56:55;;;;;;;;;;;;;;;;;;;;;
2022/07/21 10:02:49;;;;;;;6.40;5.80;;;28.70;50.70;;;;;;4899152;29;20578;-82
2022/07/21 10:05:43;;;;;;;7.63;6.93;;;28.70;50.70;;;;;;4900797;29;20972;-83
2022/07/21 10:08:22;;;;;;;8.20;7.27;;;28.70;50.60;;;;;;4917717;29;20432;-83
2022/07/21 10:11:15;;;;;;;7.37;6.77;;;28.70;50.60;;;;;;4883631;29;20422;-83
2022/07/21 10:27:46;;;;;;;6.67;6.03;;;28.70;50.50;;;;;;4880638;29;20394;-83
2022/07/21 10:30:21;;;;;;;;;;;;;;;;;;;;;
2022/07/21 10:33:03;;;;;;;6.73;5.90;;;28.70;50.50;;;;;;4879116;29;20430;-86
2022/07/21 10:36:12;;;;;;;6.47;5.87;;;28.70;50.50;;;;;;4865110;29;20448;-82
2022/07/21 10:39:17;;;;;;;6.63;6.00;;;28.70;50.40;;;;;;4866204;29;20421;-82
2022/07/21 10:41:58;;;;;;;5.70;4.87;;;28.70;50.40;;;;;;4881442;29;20414;-82
2022/07/21 10:45:13;;;;;;;5.13;4.73;;;28.70;50.30;;;;;;4863265;29;20434;-81
2022/07/21 10:54:34;;;;;;;;;;;;;;;;;;;;;
2022/07/21 10:57:53;;;;;;;;;;;;;;;;;;;;;
2022/07/21 11:00:36;;;;;;;5.07;4.67;;;28.70;50.20;;;;;;4849404;29;20443;-82
2022/07/21 11:03:38;;;;;;;5.00;4.57;;;28.70;50.10;;;;;;4860791;29;20478;-82
2022/07/21 11:06:30;;;;;;;5.80;5.27;;;28.70;50.10;;;;;;4859182;29;20420;-83
2022/07/21 11:09:12;;;;;;;5.03;4.63;;;28.70;50.00;;;;;;4845524;29;20434;-82
2022/07/21 11:11:46;;;;;;;5.50;5.00;;;28.70;50.00;;;;;;4844184;29;20408;-83
2022/07/21 11:14:39;;;;;;;5.83;5.33;;;28.70;49.90;;;;;;4860205;29;20423;-82
2022/07/21 11:17:10;;;;;;;5.53;5.00;;;28.70;49.90;;;;;;4845680;29;20424;-81
2022/07/21 11:20:00;;;;;;;;;;;;;;;;;;;;;
2022/07/21 11:22:37;;;;;;;6.00;5.40;;;28.70;49.80;;;;;;4861680;29;20475;-82
2022/07/21 11:25:16;;;;;;;4.87;4.37;;;28.70;49.80;;;;;;4860133;29;20418;-82
2022/07/21 11:34:46;;;;;;;6.20;5.60;;;28.70;49.80;;;;;;4914095;28;20420;-82
2022/07/21 11:37:22;;;;;;;5.10;4.60;;;28.70;49.80;;;;;;4940920;29;20419;-82
2022/07/21 11:40:22;;;;;;;5.53;5.03;;;28.70;49.80;;;;;;4941068;29;20730;-82
2022/07/21 11:42:59;;;;;;;5.40;4.90;;;28.70;49.70;;;;;;4940528;29;20451;-82
2022/07/21 11:45:55;;;;;;;5.50;5.00;;;28.70;49.70;;;;;;4940011;29;20412;-83
2022/07/21 11:48:35;;;;;;;5.20;4.70;;;28.70;49.60;;;;;;4921754;29;20416;-82
2022/07/21 11:53:52;;;;;;;5.80;4.40;;;28.70;49.60;;;;;;4941344;29;20484;-82
2022/07/21 11:56:21;;;;;;;5.00;4.40;;;28.70;49.50;;;;;;4925520;29;20440;-82
2022/07/21 11:59:07;;;;;;;4.43;4.03;;;28.70;49.50;;;;;;4941665;29;20422;-81
2022/07/21 12:05:15;;;;;;;4.70;4.23;;;28.70;49.40;;;;;;4922644;29;20428;-81
2022/07/21 12:14:18;;;;;;;5.10;4.60;;;28.70;49.30;;;;;;4998561;28;20448;-82
2022/07/21 12:17:10;;;;;;;4.53;3.93;;;28.70;49.30;;;;;;4998481;28;20757;-82
2022/07/21 12:22:48;;;;;;;4.30;4.00;;;28.70;49.30;;;;;;4985417;28;20480;-82
2022/07/21 12:25:16;;;;;;;4.40;4.10;;;28.70;49.30;;;;;;4982938;28;20416;-81
2022/07/21 12:27:45;;;;;;;4.40;4.00;;;28.70;49.30;;;;;;4999367;28;20456;-82
2022/07/21 12:30:34;;;;;;;4.03;3.73;;;28.80;49.30;;;;;;4993085;28;20424;-82
2022/07/21 12:33:36;;;;;;;3.77;3.37;;;28.70;49.20;;;;;;4998682;28;20417;-82
2022/07/21 12:36:08;;;;;;;4.57;4.17;;;28.70;49.20;;;;;;4997192;28;20417;-83
2022/07/21 12:38:55;;;;;;;4.63;4.20;;;28.70;49.20;;;;;;4997168;28;20472;-81
2022/07/21 12:41:23;;;;;;;4.63;4.23;;;28.70;49.20;;;;;;5030257;28;20443;-83
2022/07/21 12:44:03;;;;;;;4.43;4.03;;;28.70;49.20;;;;;;5057467;28;20449;-83
2022/07/21 12:46:33;;;;;;;4.60;4.20;;;28.70;49.10;;;;;;5057399;28;20463;-83
2022/07/21 12:49:17;;;;;;;4.27;3.87;;;28.70;49.10;;;;;;5074922;28;20419;-82
2022/07/21 12:52:06;;;;;;;5.17;4.67;;;28.70;49.10;;;;;;5058686;28;20862;-85
2022/07/21 13:15:32;;;;;;;4.80;4.30;;;28.70;49.30;;;;;;4975167;28;20398;-86
2022/07/21 13:25:42;;;;;;;;;;;;;;;;;;;;;
2022/07/21 13:38:05;;;;;;;5.70;3.83;;;28.70;49.40;;;;;;4892094;29;20394;-84
2022/07/21 13:40:31;;;;;;;3.80;3.50;;;28.70;49.30;;;;;;4898032;29;20433;-83
2022/07/21 13:42:57;;;;;;;4.70;3.77;;;28.70;49.80;;;;;;4920262;29;20467;-83
2022/07/21 13:46:01;;;;;;;4.37;3.97;;;28.80;49.30;;;;;;4921723;29;20456;-83
2022/07/21 13:48:44;;;;;;;4.17;3.77;;;28.80;49.20;;;;;;4936529;29;20426;-83
2022/07/21 13:51:57;;;;;;;;;;;;;;;;;;;;;
2022/07/21 13:54:24;;;;;;;3.80;3.40;;;28.80;49.20;;;;;;4917548;29;20432;-82
2022/07/21 13:57:13;;;;;;;5.00;4.60;;;28.80;49.00;;;;;;4903386;29;20789;-83
2022/07/21 13:59:49;;;;;;;;;;;;;;;;;;;;;
2022/07/21 14:02:48;;;;;;;3.67;3.37;;;28.80;49.00;;;;;;4898321;29;20476;-83
2022/07/21 14:05:29;;;;;;;4.07;3.67;;;28.80;49.00;;;;;;4882401;29;20520;-83
2022/07/21 14:07:58;;;;;;;4.13;3.73;;;28.80;48.90;;;;;;4882864;29;20413;-82
2022/07/21 14:10:44;;;;;;;4.07;3.70;;;28.80;48.90;;;;;;4900058;29;20428;-83
2022/07/21 14:13:25;;;;;;;3.33;3.03;;;28.80;48.80;;;;;;4899642;29;20424;-83
2022/07/21 14:15:51;;;;;;;3.53;3.23;;;28.80;48.80;;;;;;4900495;29;20461;-83
2022/07/21 14:18:20;;;;;;;4.00;3.70;;;28.80;48.80;;;;;;4898971;29;20433;-83
2022/07/21 14:20:51;;;;;;;3.57;3.27;;;28.80;48.80;;;;;;4901511;29;20185;-83
2022/07/21 14:37:14;;;;;;;3.67;3.33;;;28.80;48.70;;;;;;4955087;29;20382;-83
2022/07/21 14:49:18;;;;;;;3.97;3.40;;;28.80;48.70;;;;;;4935555;29;20798;-82
2022/07/21 14:51:47;;;;;;;3.90;3.50;;;28.70;48.70;;;;;;4936033;29;20415;-83
2022/07/21 14:57:38;;;;;;;3.77;3.47;;;28.80;48.70;;;;;;5000516;28;20384;-83
2022/07/21 15:00:07;;;;;;;3.77;3.47;;;28.80;48.70;;;;;;4995536;28;20422;-82
2022/07/21 15:02:36;;;;;;;3.97;3.67;;;28.80;48.70;;;;;;5000501;28;20491;-82
2022/07/21 15:08:34;;;;;;;3.47;3.17;;;28.80;48.60;;;;;;5072723;28;20408;-83
2022/07/21 15:11:07;;;;;;;5.67;3.33;;;28.80;48.60;;;;;;5054632;28;20444;-83
2022/07/21 15:21:42;;;;;;;;;;;;;;;;;;;;;
2022/07/21 15:27:30;;;;;;;3.00;2.73;;;28.80;48.70;;;;;;4910159;29;20389;-84
2022/07/21 15:30:07;;;;;;;3.63;3.33;;;28.80;48.70;;;;;;4908570;29;20417;-83
2022/07/21 15:32:33;;;;;;;3.40;3.10;;;28.80;48.70;;;;;;4907702;29;20208;-83
2022/07/21 15:35:08;;;;;;;3.40;3.10;;;28.80;48.70;;;;;;4908914;29;20469;-82
2022/07/21 15:37:36;;;;;;;3.47;3.13;;;28.80;48.60;;;;;;4908735;29;20420;-84
2022/07/21 15:40:11;;;;;;;3.60;3.30;;;28.80;48.60;;;;;;4909123;29;20417;-81
2022/07/21 15:42:43;;;;;;;3.43;3.13;;;28.80;48.60;;;;;;4908183;29;20555;-82
2022/07/21 15:45:10;;;;;;;3.73;3.43;;;28.80;48.60;;;;;;4909837;29;20413;-81
2022/07/21 15:47:39;;;;;;;3.47;3.17;;;28.80;48.60;;;;;;4909055;29;20413;-82
2022/07/21 15:50:06;;;;;;;3.33;3.03;;;28.90;48.60;;;;;;4921271;29;20424;-82
2022/07/21 15:52:39;;;;;;;3.40;3.10;;;28.90;48.60;;;;;;4950818;29;20924;-81
2022/07/21 15:55:13;;;;;;;3.40;3.10;;;28.90;48.60;;;;;;4967281;28;20428;-80
2022/07/21 15:58:02;;;;;;;3.27;2.97;;;28.90;48.60;;;;;;4989166;28;20409;-84
2022/07/21 16:00:28;;;;;;;6.50;3.50;;;28.90;48.60;;;;;;4988314;28;20404;-81
2022/07/21 16:02:56;;;;;;;3.97;3.20;;;28.90;48.70;;;;;;5005066;28;20519;-81
2022/07/21 16:05:34;;;;;;;4.03;3.20;;;28.90;48.70;;;;;;5004671;28;20424;-82
2022/07/21 16:08:00;;;;;;;3.10;2.80;;;28.90;48.70;;;;;;5005227;28;20404;-81
2022/07/21 16:10:27;;;;;;;3.37;3.10;;;28.90;48.70;;;;;;5004531;28;20434;-82
2022/07/21 16:12:53;;;;;;;3.37;3.07;;;28.90;48.70;;;;;;4990689;28;20424;-81
2022/07/21 16:15:21;;;;;;;3.00;2.77;;;28.90;48.70;;;;;;5010560;28;20897;-82
2022/07/21 16:17:50;;;;;;;3.17;2.87;;;28.90;48.60;;;;;;4994552;28;20438;-82
2022/07/21 16:20:30;;;;;;;3.37;3.07;;;28.90;48.60;;;;;;5010929;28;20789;-83
2022/07/21 16:23:01;;;;;;;3.60;3.30;;;28.90;48.70;;;;;;4994878;28;20527;-82
2022/07/21 16:25:36;;;;;;;3.23;2.93;;;28.90;48.60;;;;;;4994328;28;20725;-82
2022/07/21 16:28:04;;;;;;;4.00;3.60;;;28.90;48.70;;;;;;5010498;28;20415;-82
2022/07/21 16:30:33;;;;;;;3.40;3.10;;;28.90;48.60;;;;;;4993750;28;20517;-81
2022/07/21 16:33:00;;;;;;;3.30;3.10;;;28.90;48.70;;;;;;4993519;28;20488;-82
2022/07/21 16:35:26;;;;;;;3.77;3.20;;;28.90;48.70;;;;;;4993279;28;20576;-81
2022/07/21 16:38:03;;;;;;;3.60;3.30;;;28.90;48.60;;;;;;4993517;28;20534;-81
2022/07/21 16:40:29;;;;;;;3.10;2.67;;;28.90;48.60;;;;;;5008758;28;20420;-82
2022/07/21 16:42:55;;;;;;;3.90;3.60;;;28.90;48.60;;;;;;4992729;28;20463;-82
2022/07/21 16:45:25;;;;;;;5.43;3.67;;;28.90;48.60;;;;;;4991430;28;20487;-82
2022/07/21 16:47:51;;;;;;;4.00;3.60;;;28.90;48.60;;;;;;5008156;28;20444;-81
2022/07/21 16:50:18;;;;;;;3.03;2.73;;;28.90;48.50;;;;;;5008064;28;20528;-82
2022/07/21 16:52:50;;;;;;;3.73;3.43;;;28.90;48.50;;;;;;4992895;28;20420;-82
2022/07/21 16:55:16;;;;;;;4.00;3.70;;;28.90;48.50;;;;;;5007528;28;20419;-82
2022/07/21 16:57:43;;;;;;;3.23;3.03;;;28.90;48.50;;;;;;5007886;28;20423;-82
2022/07/21 17:00:14;;;;;;;3.70;3.40;;;28.90;48.50;;;;;;4992013;28;20424;-82
2022/07/21 17:02:40;;;;;;;4.70;3.80;;;28.90;48.50;;;;;;4993309;28;20492;-83
2022/07/21 17:05:18;;;;;;;4.03;3.60;;;29.00;48.50;;;;;;5014461;28;20413;-82
2022/07/21 17:07:50;;;;;;;3.63;3.33;;;28.90;48.50;;;;;;4997980;28;20411;-83